Viking Amber — 9V7985 — position and weather

sailwx.info

Track history (hours):
 
Tides and Currents Weather Stations Pressure Air Temp Water Temp Dewpoint Dewpoint Depression Visibility Wind Speed Wind Dir Waves Ship Positions

Viking Amber

Last reported at 2014-Oct-17 20:14 UTC. Time now 2014-Oct-24 10:22 UTC.
Position N 36°25' W 023°37'.

Length 167 m; draft 7.1 m.

Type: Other ship. MMSI: 563255000.

Date/timePositionNaut miles runAvg speedWind from/ knotsBaromVisibWave heightAir tempDewpointWater temp
2014-Oct-17 20:14N 36°25' W 023°37'1014.1
2014-Oct-17 19:33N 36°20' W 023°47'1414.3
2014-Oct-17 18:33N 36°17' W 024°04'1413.9
2014-Oct-17 17:34N 36°15' W 024°21'1413.6
2014-Oct-17 16:34N 36°12' W 024°38'1313.2
2014-Oct-17 15:33N 36°10' W 024°54'1312.5
2014-Oct-17 14:34N 36°06' W 025°09'1313.2
2014-Oct-17 13:34N 35°57' W 025°20'1313.4
2014-Oct-17 12:33N 35°48' W 025°32'  
Track history (hours):
 
Tides and Currents Weather Stations Pressure Air Temp Water Temp Dewpoint Dewpoint Depression Visibility Wind Speed Wind Dir Waves Ship Positions

Viking Amber

Last reported at 2014-Oct-17 20:14 UTC. Time now 2014-Oct-24 10:22 UTC.
Position N 36°25' W 023°37'.

Length 167 m; draft 7.1 m.

Type: Other ship. MMSI: 563255000.

Date/timePositionNaut miles runAvg speedWind from/ knotsBaromVisibWave heightAir tempDewpointWater temp
2014-Oct-17 20:14N 36°25' W 023°37'1014.1
2014-Oct-17 19:33N 36°20' W 023°47'1414.3
2014-Oct-17 18:33N 36°17' W 024°04'1413.9
2014-Oct-17 17:34N 36°15' W 024°21'1413.6
2014-Oct-17 16:34N 36°12' W 024°38'1313.2
2014-Oct-17 15:33N 36°10' W 024°54'1312.5
2014-Oct-17 14:34N 36°06' W 025°09'1313.2
2014-Oct-17 13:34N 35°57' W 025°20'1313.4
2014-Oct-17 12:33N 35°48' W 025°32'  

Dump ship's entire track history